Time;durP1;ratioP1;P1;durP2;ratioP2;P2;SDS_P1;SDS_P2;PMS_P1;PMS_P2;Temp;Humidity;BMP_temperature;BMP_pressure;BME280_temperature;BME280_humidity;BME280_pressure;Samples;Min_cycle;Max_cycle;Signal;HPM_P1;HPM_P2
2020/12/14 00:01:52;;;;;;;21.17;5.45;;;11.40;99.90;;;;;;5031035;28;20060;-87
2020/12/14 00:04:22;;;;;;;21.00;6.18;;;;;;;;;;5036395;28;20517;-84
2020/12/14 00:07:02;;;;;;;23.00;6.60;;;11.00;99.90;;;;;;5014615;28;20056;-86
2020/12/14 00:09:33;;;;;;;41.20;6.72;;;;;;;;;;4971178;28;20053;-86
2020/12/14 00:12:29;;;;;;;22.90;5.20;;;11.10;99.90;;;;;;4995030;28;20049;-85
2020/12/14 00:15:02;;;;;;;23.05;6.57;;;;;;;;;;5002503;28;20057;-88
2020/12/14 00:17:30;;;;;;;16.90;4.50;;;;;;;;;;5009616;28;20038;-88
2020/12/14 00:19:58;;;;;;;45.33;9.05;;;;;;;;;;5010234;28;20074;-86
2020/12/14 00:22:29;;;;;;;21.83;4.28;;;11.30;99.90;;;;;;5008975;28;20062;-86
2020/12/14 00:24:59;;;;;;;21.50;6.85;;;;;;;;;;4998665;28;20041;-87
2020/12/14 00:27:27;;;;;;;24.40;5.25;;;;;;;;;;5018857;28;20142;-86
2020/12/14 00:30:06;;;;;;;30.08;6.85;;;11.30;99.90;;;;;;5004047;28;20054;-85
2020/12/14 00:32:37;;;;;;;23.25;5.20;;;11.10;99.90;;;;;;5025730;28;20057;-84
2020/12/14 00:35:07;;;;;;;31.00;6.90;;;;;;;;;;5011708;28;20053;-88
2020/12/14 00:37:35;;;;;;;33.30;6.30;;;;;;;;;;5011517;28;20057;-88
2020/12/14 00:40:06;;;;;;;27.77;6.38;;;;;;;;;;5025281;28;20054;-86
2020/12/14 00:42:34;;;;;;;23.13;4.90;;;;;;;;;;4990926;28;20049;-84
2020/12/14 00:45:04;;;;;;;18.60;5.25;;;11.10;99.90;;;;;;5008906;28;20062;-86
2020/12/14 00:47:57;;;;;;;21.10;4.32;;;11.10;99.90;;;;;;4965822;29;20059;-85
2020/12/14 00:50:27;;;;;;;26.77;4.82;;;;;;;;;;4966099;28;20063;-87
2020/12/14 00:52:57;;;;;;;17.60;4.32;;;;;;;;;;4965749;29;20074;-91
2020/12/14 00:55:34;;;;;;;21.52;5.25;;;11.20;99.90;;;;;;4935070;29;20051;-89
2020/12/14 00:58:03;;;;;;;35.22;7.68;;;11.50;99.90;;;;;;4965555;28;20069;-86
2020/12/14 01:00:32;;;;;;;32.13;7.80;;;;;;;;;;4967076;29;20055;-89
2020/12/14 01:03:01;;;;;;;33.92;5.93;;;;;;;;;;4964506;29;20106;-88
2020/12/14 01:05:31;;;;;;;17.33;7.03;;;;;;;;;;4964744;29;20047;-86
2020/12/14 01:07:59;;;;;;;21.67;4.18;;;;;;;;;;4964801;29;20066;-85
2020/12/14 01:10:29;;;;;;;;;;;11.40;99.90;;;;;;4951300;29;20051;-89
2020/12/14 01:12:58;;;;;;;22.90;7.35;;;;;;;;;;4962999;28;19942;-86
2020/12/14 01:15:26;;;;;;;24.90;5.85;;;;;;;;;;4965177;29;20051;-87
2020/12/14 01:17:54;;;;;;;18.90;6.38;;;;;;;;;;4953502;28;20078;-85
2020/12/14 01:20:22;;;;;;;20.58;5.63;;;;;;;;;;4988847;28;20065;-86
2020/12/14 01:22:50;;;;;;;29.45;7.30;;;;;;;;;;4998737;28;20089;-88
2020/12/14 01:25:19;;;;;;;14.50;5.43;;;11.00;99.90;;;;;;4963833;28;20046;-86
2020/12/14 01:27:47;;;;;;;31.05;7.32;;;;;;;;;;4988682;28;20062;-87
2020/12/14 01:30:16;;;;;;;22.65;6.63;;;;;;;;;;5000286;28;20096;-86
2020/12/14 01:32:45;;;;;;;46.35;6.18;;;;;;;;;;4988318;28;20065;-84
2020/12/14 01:35:13;;;;;;;22.25;5.60;;;;;;;;;;4996964;28;20033;-85
2020/12/14 01:37:42;;;;;;;25.95;4.32;;;;;;;;;;4994965;28;20062;-85
2020/12/14 01:40:10;;;;;;;24.70;6.28;;;;;;;;;;4976405;28;20054;-88
2020/12/14 01:42:39;;;;;;;21.05;4.10;;;11.10;99.90;;;;;;4987308;28;20058;-86
2020/12/14 01:45:07;;;;;;;21.95;5.50;;;;;;;;;;5005966;28;20070;-86
2020/12/14 01:47:46;;;;;;;34.85;7.20;;;11.00;99.90;;;;;;5016195;28;20060;-87
2020/12/14 01:50:15;;;;;;;28.77;5.13;;;;;;;;;;4965022;28;20057;-86
2020/12/14 01:52:59;;;;;;;21.13;5.47;;;11.20;99.90;;;;;;4998728;28;20058;-85
2020/12/14 01:55:41;;;;;;;18.33;4.90;;;11.10;99.90;;;;;;4985947;28;20058;-87
2020/12/14 01:58:12;;;;;;;22.23;6.15;;;11.20;99.90;;;;;;4992410;28;20042;-87
2020/12/14 02:00:44;;;;;;;26.13;4.82;;;;;;;;;;5008105;28;20061;-87
2020/12/14 02:03:13;;;;;;;29.65;5.90;;;;;;;;;;4995613;28;20054;-85
2020/12/14 02:05:42;;;;;;;11.98;3.30;;;;;;;;;;4998400;28;20036;-86
2020/12/14 02:08:14;;;;;;;21.40;4.40;;;;;;;;;;4997403;28;20050;-85
2020/12/14 02:10:44;;;;;;;22.67;4.68;;;;;;;;;;5004381;28;20041;-88
2020/12/14 02:13:11;;;;;;;22.50;4.68;;;;;;;;;;5021258;28;20409;-87
2020/12/14 02:15:41;;;;;;;13.73;5.05;;;;;;;;;;5023915;28;20046;-88
2020/12/14 02:18:08;;;;;;;17.85;4.93;;;;;;;;;;5007366;28;20073;-87
2020/12/14 02:20:36;;;;;;;22.75;5.05;;;;;;;;;;5009121;28;20056;-85
2020/12/14 02:23:07;;;;;;;12.15;3.58;;;;;;;;;;5024064;28;20486;-86
2020/12/14 02:25:36;;;;;;;19.42;4.15;;;;;;;;;;4992755;28;20053;-88
2020/12/14 02:28:04;;;;;;;19.40;6.85;;;;;;;;;;5010018;28;20056;-85
2020/12/14 02:30:34;;;;;;;19.85;4.72;;;11.60;99.90;;;;;;4996643;28;20050;-87
2020/12/14 02:33:03;;;;;;;21.90;4.57;;;;;;;;;;5012423;28;20064;-88
2020/12/14 02:35:32;;;;;;;12.70;3.75;;;;;;;;;;5011856;28;20482;-88
2020/12/14 02:38:06;;;;;;;23.85;6.05;;;;;;;;;;5005089;28;20054;-87
2020/12/14 02:40:34;;;;;;;20.13;4.38;;;11.40;99.90;;;;;;5018548;28;20057;-88
2020/12/14 02:43:03;;;;;;;31.95;4.55;;;;;;;;;;5008191;28;20049;-87
2020/12/14 02:45:31;;;;;;;15.75;3.92;;;;;;;;;;5014887;28;20083;-86
2020/12/14 02:47:59;;;;;;;21.27;4.95;;;;;;;;;;5019953;28;20054;-88
2020/12/14 02:50:31;;;;;;;13.40;3.30;;;11.80;99.90;;;;;;5002212;28;20070;-91
2020/12/14 02:52:59;;;;;;;8.73;3.58;;;;;;;;;;4986210;28;20058;-86
2020/12/14 02:55:27;;;;;;;28.23;3.70;;;;;;;;;;4999571;28;20057;-86
2020/12/14 02:57:58;;;;;;;28.40;5.82;;;;;;;;;;4991496;28;20135;-89
2020/12/14 03:00:28;;;;;;;22.23;3.05;;;;;;;;;;5009662;28;20046;-86
2020/12/14 03:02:56;;;;;;;18.88;4.55;;;;;;;;;;5012893;28;20058;-88
2020/12/14 03:05:24;;;;;;;28.23;7.38;;;;;;;;;;5022062;28;20050;-86
2020/12/14 03:07:54;;;;;;;28.50;8.10;;;;;;;;;;5016509;28;20050;-89
2020/12/14 03:10:22;;;;;;;30.55;7.40;;;;;;;;;;4989408;28;20050;-86
2020/12/14 03:12:52;;;;;;;28.67;6.35;;;;;;;;;;5019966;28;20054;-87
2020/12/14 03:15:23;;;;;;;28.17;4.35;;;;;;;;;;5000755;28;20514;-86
2020/12/14 03:17:51;;;;;;;24.15;6.63;;;;;;;;;;5006456;28;20053;-86
2020/12/14 03:20:20;;;;;;;19.88;3.28;;;11.80;99.90;;;;;;5018539;28;20058;-86
2020/12/14 03:22:49;;;;;;;19.35;5.03;;;;;;;;;;5018984;28;20054;-87
2020/12/14 03:25:18;;;;;;;16.95;4.28;;;;;;;;;;5009232;28;20167;-87
2020/12/14 03:27:46;;;;;;;18.67;5.88;;;;;;;;;;4993715;28;20053;-92
2020/12/14 03:30:14;;;;;;;23.60;3.83;;;;;;;;;;5039698;28;20049;-89
2020/12/14 03:32:45;;;;;;;22.48;4.78;;;;;;;;;;5030566;28;20057;-89
2020/12/14 03:35:14;;;;;;;28.40;6.07;;;;;;;;;;5018317;28;20254;-90
2020/12/14 03:37:43;;;;;;;13.88;4.28;;;;;;;;;;5011922;28;20629;-88
2020/12/14 03:40:15;;;;;;;26.50;7.82;;;12.10;99.90;;;;;;5020589;28;20054;-91
2020/12/14 03:42:44;;;;;;;15.32;3.70;;;;;;;;;;5012428;28;20050;-89
2020/12/14 03:45:37;;;;;;;21.17;4.82;;;12.10;99.90;;;;;;5038370;28;20069;-88
2020/12/14 03:48:06;;;;;;;15.88;3.60;;;;;;;;;;5027098;28;20511;-89
2020/12/14 03:50:34;;;;;;;33.97;5.47;;;;;;;;;;5038672;28;20046;-89
2020/12/14 03:53:01;;;;;;;32.60;5.30;;;;;;;;;;5032448;28;20651;-89
2020/12/14 03:55:30;;;;;;;18.58;4.80;;;;;;;;;;5024036;28;20056;-87
2020/12/14 03:57:57;;;;;;;14.80;3.63;;;;;;;;;;4994874;28;20084;-87
2020/12/14 04:00:25;;;;;;;16.02;3.25;;;;;;;;;;4992900;28;20054;-88
2020/12/14 04:03:00;;;;;;;18.27;4.47;;;;;;;;;;5039523;28;20050;-87
2020/12/14 04:05:28;;;;;;;17.52;4.65;;;;;;;;;;4990880;28;20050;-88
2020/12/14 04:08:03;;;;;;;21.00;4.43;;;12.30;99.90;;;;;;5030339;28;20061;-86
2020/12/14 04:10:35;;;;;;;16.40;6.47;;;12.30;99.90;;;;;;5028720;28;20069;-87
2020/12/14 04:13:03;;;;;;;;;;;12.40;99.90;;;;;;5047825;28;20049;-89
2020/12/14 04:15:30;;;;;;;5.38;2.53;;;;;;;;;;5010869;28;19935;-86
2020/12/14 04:17:58;;;;;;;18.05;3.00;;;;;;;;;;5035566;28;20058;-89
2020/12/14 04:20:28;;;;;;;12.68;3.88;;;;;;;;;;5028444;28;20056;-93
2020/12/14 04:22:57;;;;;;;16.73;3.88;;;;;;;;;;5034857;28;20516;-88
2020/12/14 04:25:25;;;;;;;9.35;2.67;;;;;;;;;;4988323;28;20182;-87
2020/12/14 04:27:57;;;;;;;15.45;3.30;;;;;;;;;;4994785;28;20065;-87
2020/12/14 04:30:27;;;;;;;22.55;3.97;;;;;;;;;;5009909;28;20042;-89
2020/12/14 04:33:10;;;;;;;6.63;1.52;;;;;;;;;;5021923;28;20062;-89
2020/12/14 04:35:41;;;;;;;3.88;1.55;;;;;;;;;;5013755;28;20057;-87
2020/12/14 04:38:31;;;;;;;2.17;0.93;;;;;;;;;;5001281;28;20042;-86
2020/12/14 04:41:06;;;;;;;4.38;1.60;;;11.00;99.90;;;;;;4992972;28;20052;-85
2020/12/14 04:43:38;;;;;;;5.82;1.00;;;;;;;;;;5008753;28;20062;-86
2020/12/14 04:46:11;;;;;;;5.05;1.42;;;;;;;;;;5014227;28;20070;-90
2020/12/14 04:48:51;;;;;;;5.13;1.13;;;10.80;99.90;;;;;;5025262;28;20054;-87
2020/12/14 04:51:23;;;;;;;7.38;1.50;;;;;;;;;;5016156;28;20041;-89
2020/12/14 04:53:52;;;;;;;12.13;2.08;;;10.60;99.90;;;;;;5014367;28;20058;-90
2020/12/14 04:56:40;;;;;;;6.47;1.60;;;10.50;99.90;;;;;;5002361;28;20050;-87
2020/12/14 04:59:09;;;;;;;11.77;1.30;;;10.50;99.90;;;;;;5027629;28;20061;-84
2020/12/14 05:01:39;;;;;;;2.63;1.20;;;;;;;;;;5039175;28;20045;-90
2020/12/14 05:04:07;;;;;;;3.00;1.20;;;;;;;;;;5013666;28;20065;-86
2020/12/14 05:06:51;;;;;;;6.75;2.65;;;10.40;99.90;;;;;;5012531;28;20050;-86
2020/12/14 05:09:21;;;;;;;4.80;1.10;;;10.00;99.90;;;;;;5037834;28;20049;-85
2020/12/14 05:11:48;;;;;;;2.55;1.42;;;10.40;99.90;;;;;;5018882;28;20077;-87
2020/12/14 05:14:23;;;;;;;2.35;2.13;;;10.50;99.90;;;;;;5026219;28;20057;-88
2020/12/14 05:16:52;;;;;;;7.00;1.95;;;;;;;;;;5010743;28;20076;-85
2020/12/14 05:19:25;;;;;;;2.13;1.25;;;10.30;99.90;;;;;;5035559;28;20058;-87
2020/12/14 05:21:59;;;;;;;8.80;1.90;;;10.30;99.90;;;;;;5008301;28;20069;-85
2020/12/14 05:24:29;;;;;;;3.83;1.50;;;10.20;99.90;;;;;;5037441;28;20046;-88
2020/12/14 05:27:01;;;;;;;6.18;2.58;;;;;;;;;;5037598;28;20061;-88
2020/12/14 05:29:30;;;;;;;5.82;2.65;;;10.20;99.90;;;;;;5022998;28;20060;-87
2020/12/14 05:32:04;;;;;;;5.60;1.52;;;;;;;;;;5021091;28;20050;-87
2020/12/14 05:34:38;;;;;;;5.28;1.52;;;10.20;99.90;;;;;;5014751;28;20046;-89
2020/12/14 05:37:16;;;;;;;8.98;1.98;;;;;;;;;;4995124;28;20054;-87
2020/12/14 05:39:46;;;;;;;14.77;4.95;;;;;;;;;;4992136;28;20042;-86
2020/12/14 05:42:23;;;;;;;2.97;1.33;;;10.10;99.90;;;;;;5025176;28;20065;-89
2020/12/14 05:44:54;;;;;;;8.25;1.63;;;;;;;;;;5008099;28;20057;-88
2020/12/14 05:47:33;;;;;;;10.38;2.60;;;;;;;;;;4993315;28;20073;-87
2020/12/14 05:50:01;;;;;;;13.98;2.90;;;;;;;;;;5006088;28;20046;-88
2020/12/14 05:52:40;;;;;;;12.48;2.85;;;10.00;99.90;;;;;;5017147;28;20058;-88
2020/12/14 05:55:10;;;;;;;8.27;3.28;;;;;;;;;;4983661;28;20050;-88
2020/12/14 05:57:39;;;;;;;6.80;1.95;;;;;;;;;;5019440;28;20049;-88
2020/12/14 06:00:10;;;;;;;9.02;3.33;;;9.90;99.90;;;;;;4989352;28;20064;-87
2020/12/14 06:02:38;;;;;;;10.75;3.15;;;;;;;;;;5031417;28;20053;-89
2020/12/14 06:05:14;;;;;;;15.55;2.97;;;9.80;99.90;;;;;;5002095;28;20125;-88
2020/12/14 06:07:58;;;;;;;6.47;2.30;;;9.80;99.90;;;;;;5003787;28;20046;-87
2020/12/14 06:10:31;;;;;;;6.53;2.83;;;9.90;99.90;;;;;;5004722;28;20076;-86
2020/12/14 06:13:07;;;;;;;21.23;4.88;;;9.80;99.90;;;;;;4994459;28;20505;-88
2020/12/14 06:15:37;;;;;;;9.43;3.28;;;;;;;;;;5029272;28;20041;-86
2020/12/14 06:18:09;;;;;;;9.50;3.00;;;;;;;;;;5007064;28;20053;-86
2020/12/14 06:20:38;;;;;;;12.10;2.10;;;;;;;;;;5005389;28;20054;-89
2020/12/14 06:23:08;;;;;;;14.82;3.60;;;9.60;99.90;;;;;;5005819;28;20135;-87
2020/12/14 06:25:37;;;;;;;16.10;3.88;;;;;;;;;;4988834;28;20053;-89
2020/12/14 06:28:27;;;;;;;6.45;2.47;;;9.80;99.90;;;;;;5040491;28;20505;-88
2020/12/14 06:30:58;;;;;;;12.15;3.15;;;;;;;;;;5009687;28;20057;-86
2020/12/14 06:33:40;;;;;;;18.83;3.88;;;9.90;99.90;;;;;;4988676;28;20072;-86
2020/12/14 06:36:21;;;;;;;16.98;3.83;;;9.90;99.90;;;;;;5007138;28;20422;-87
2020/12/14 06:38:54;;;;;;;;;;;9.90;99.90;;;;;;5034849;28;20066;-88
2020/12/14 06:41:29;;;;;;;23.98;6.38;;;10.00;99.90;;;;;;4992023;28;19936;-87
2020/12/14 06:44:12;;;;;;;15.38;4.25;;;;;;;;;;4977495;28;20064;-90
2020/12/14 06:46:41;;;;;;;32.25;4.10;;;;;;;;;;5024518;28;20038;-84
2020/12/14 06:49:13;;;;;;;18.98;4.88;;;;;;;;;;5023489;28;20058;-85
2020/12/14 06:51:54;;;;;;;41.67;6.55;;;9.90;99.90;;;;;;5024524;28;20060;-89
2020/12/14 06:54:42;;;;;;;17.35;3.90;;;9.80;99.90;;;;;;5019301;28;20050;-88
2020/12/14 06:57:17;;;;;;;19.85;4.65;;;8.90;99.90;;;;;;4990875;28;20049;-85
2020/12/14 06:59:51;;;;;;;23.65;5.65;;;9.90;99.90;;;;;;5006197;28;20054;-87
2020/12/14 07:02:41;;;;;;;25.65;4.65;;;9.80;99.90;;;;;;5023704;28;20414;-91
2020/12/14 07:05:34;;;;;;;17.50;6.18;;;9.80;99.90;;;;;;5015178;28;20211;-88
2020/12/14 07:08:03;;;;;;;24.48;5.38;;;;;;;;;;5040916;28;20045;-88
2020/12/14 07:10:31;;;;;;;28.88;5.38;;;;;;;;;;5012365;28;20046;-86
2020/12/14 07:13:00;;;;;;;27.92;6.50;;;;;;;;;;5022300;28;20062;-88
2020/12/14 07:15:37;;;;;;;29.85;7.28;;;;;;;;;;5030865;28;20053;-87
2020/12/14 07:18:10;;;;;;;27.88;5.10;;;9.90;99.90;;;;;;5008493;28;20058;-89
2020/12/14 07:21:13;;;;;;;25.40;4.68;;;10.00;99.90;;;;;;4979354;28;20050;-87
2020/12/14 07:23:46;;;;;;;25.13;6.18;;;9.90;99.90;;;;;;5035879;28;20054;-87
2020/12/14 07:26:16;;;;;;;20.92;4.03;;;;;;;;;;5020354;28;20050;-89
2020/12/14 07:28:47;;;;;;;15.55;4.57;;;9.90;99.90;;;;;;5038042;28;20053;-86
2020/12/14 07:31:22;;;;;;;41.20;6.55;;;10.00;99.90;;;;;;4986506;28;20130;-88
2020/12/14 07:33:56;;;;;;;22.17;6.05;;;9.80;99.90;;;;;;5000223;28;20042;-86
2020/12/14 07:36:27;;;;;;;28.33;5.50;;;10.10;99.90;;;;;;5025518;28;20050;-90
2020/12/14 07:38:59;;;;;;;17.65;5.60;;;10.10;99.90;;;;;;5023654;28;20062;-87
2020/12/14 07:41:27;;;;;;;25.75;4.65;;;;;;;;;;5004167;28;20564;-87
2020/12/14 07:43:56;;;;;;;21.20;6.72;;;10.00;99.90;;;;;;5017399;28;20053;-88
2020/12/14 07:46:24;;;;;;;23.75;4.85;;;;;;;;;;5027226;28;20060;-88
2020/12/14 07:48:52;;;;;;;26.98;6.20;;;10.30;99.90;;;;;;5030504;28;20076;-87
2020/12/14 07:51:22;;;;;;;25.80;6.05;;;;;;;;;;5010060;28;20056;-89
2020/12/14 07:53:51;;;;;;;31.83;7.88;;;;;;;;;;5032263;28;20057;-87
2020/12/14 07:56:21;;;;;;;44.65;7.55;;;;;;;;;;4990095;28;20058;-89
2020/12/14 07:58:53;;;;;;;31.58;10.07;;;10.10;99.90;;;;;;5003245;28;20061;-88
2020/12/14 08:01:48;;;;;;;28.15;4.95;;;10.30;99.90;;;;;;4993519;28;20053;-89
2020/12/14 08:04:39;;;;;;;23.95;6.90;;;10.40;99.90;;;;;;5004276;28;20142;-91
2020/12/14 08:07:12;;;;;;;38.58;10.90;;;;;;;;;;5030304;28;20061;-94
2020/12/14 08:14:52;;;;;;;47.55;9.30;;;;;;;;;;5214187;22;20085;-94
2020/12/14 08:18:26;;;;;;;20.65;8.32;;;;;;;;;;5025899;28;20033;-94
2020/12/14 08:21:21;;;;;;;39.23;9.20;;;;;;;;;;5000491;28;20050;-91
2020/12/14 08:23:53;;;;;;;30.58;7.13;;;;;;;;;;5027841;28;20064;-94
2020/12/14 08:26:42;;;;;;;24.80;7.28;;;;;;;;;;4973072;28;20030;-95
2020/12/14 08:30:04;;;;;;;;;;;10.70;99.90;;;;;;5052977;23;20138;-93
2020/12/14 08:33:16;;;;;;;31.85;7.32;;;;;;;;;;5012149;28;19921;-95
2020/12/14 08:36:10;;;;;;;40.05;9.52;;;;;;;;;;5014217;28;20520;-93
2020/12/14 08:39:25;;;;;;;27.15;8.50;;;;;;;;;;5014290;28;20066;-94
2020/12/14 08:42:44;;;;;;;23.38;5.45;;;;;;;;;;4999903;28;20058;-95
2020/12/14 08:46:14;;;;;;;;;;;10.90;99.90;;;;;;5196770;23;21139;-90
2020/12/14 08:52:13;;;;;;;35.60;7.55;;;;;;;;;;5071683;28;20049;-93
2020/12/14 08:56:17;;;;;;;37.60;11.27;;;11.00;99.90;;;;;;5064804;28;20041;-91
2020/12/14 08:59:16;;;;;;;34.17;5.93;;;;;;;;;;5030789;28;20037;-92
2020/12/14 09:02:25;;;;;;;39.50;8.90;;;;;;;;;;5069273;28;20055;-91
2020/12/14 09:05:20;;;;;;;33.25;6.97;;;;;;;;;;5050131;28;20053;-93
2020/12/14 09:08:34;;;;;;;32.35;7.68;;;;;;;;;;5060689;28;20049;-92
2020/12/14 09:12:07;;;;;;;19.63;6.13;;;11.10;99.90;;;;;;5040767;28;20125;-93
2020/12/14 09:15:09;;;;;;;22.15;7.38;;;;;;;;;;5037117;28;20056;-92
2020/12/14 09:18:33;;;;;;;25.48;9.23;;;;;;;;;;5051156;28;20063;-92
2020/12/14 09:21:22;;;;;;;25.58;6.45;;;;;;;;;;5054088;28;20068;-91
2020/12/14 09:27:27;;;;;;;19.70;5.28;;;;;;;;;;3633693;23;20068;-91
2020/12/14 09:30:58;;;;;;;35.45;10.23;;;11.20;99.90;;;;;;5038820;23;20034;-91
2020/12/14 09:34:03;;;;;;;24.10;4.95;;;;;;;;;;5012788;23;20068;-93
2020/12/14 09:40:55;;;;;;;30.60;6.95;;;;;;;;;;5032411;28;20046;-94
2020/12/14 10:00:05;;;;;;;25.35;5.63;;;;;;;;;;4948367;29;20053;-92
2020/12/14 10:03:22;;;;;;;24.05;6.57;;;11.20;99.90;;;;;;4906079;29;20070;-93
2020/12/14 10:07:24;;;;;;;45.88;7.63;;;11.20;99.90;;;;;;4946354;29;20066;-92
2020/12/14 10:10:29;;;;;;;28.75;5.53;;;;;;;;;;4941549;28;20537;-92
2020/12/14 10:13:20;;;;;;;24.67;8.63;;;;;;;;;;4922609;29;20060;-93
2020/12/14 10:16:31;;;;;;;32.05;6.85;;;;;;;;;;4948831;29;20046;-93
2020/12/14 10:19:47;;;;;;;27.23;5.60;;;;;;;;;;4944645;23;20054;-93
2020/12/14 10:22:42;;;;;;;20.85;6.47;;;;;;;;;;4951877;29;20058;-94
2020/12/14 10:25:24;;;;;;;34.78;7.50;;;;;;;;;;4923989;29;20056;-93
2020/12/14 10:29:10;;;;;;;28.40;7.80;;;11.30;99.90;;;;;;4931623;28;20063;-94
2020/12/14 10:32:03;;;;;;;22.48;4.57;;;;;;;;;;4936103;29;20066;-93
2020/12/14 10:34:50;;;;;;;24.25;5.35;;;;;;;;;;4951632;28;20050;-95
2020/12/14 10:38:03;;;;;;;32.65;6.50;;;;;;;;;;4954851;28;20058;-93
2020/12/14 10:40:49;;;;;;;19.48;6.10;;;;;;;;;;4919685;29;20050;-91
2020/12/14 10:43:17;;;;;;;22.33;7.25;;;;;;;;;;4931083;29;20051;-94
2020/12/14 10:46:03;;;;;;;20.25;3.45;;;;;;;;;;4943157;29;20055;-92
2020/12/14 10:48:43;;;;;;;26.80;4.63;;;12.00;99.90;;;;;;4941711;29;20051;-94
2020/12/14 10:51:27;;;;;;;19.73;5.28;;;;;;;;;;4938423;29;20558;-94
2020/12/14 10:54:01;;;;;;;21.27;5.95;;;;;;;;;;4933673;28;20051;-91
2020/12/14 10:56:32;;;;;;;22.85;5.07;;;;;;;;;;4934900;29;20051;-92
2020/12/14 10:59:03;;;;;;;;;;;12.30;99.90;;;;;;4931844;29;20506;-93
2020/12/14 11:01:31;;;;;;;36.95;5.72;;;;;;;;;;4967132;28;19948;-93
2020/12/14 11:04:11;;;;;;;24.70;7.40;;;;;;;;;;4952458;28;20051;-92
2020/12/14 11:06:42;;;;;;;23.58;6.88;;;;;;;;;;4940187;28;20055;-92
2020/12/14 11:09:13;;;;;;;22.50;6.88;;;;;;;;;;4934944;28;20047;-93
2020/12/14 11:11:49;;;;;;;29.30;5.30;;;;;;;;;;4947251;28;20046;-92
2020/12/14 11:14:31;;;;;;;30.95;7.88;;;;;;;;;;4932393;28;20047;-93
2020/12/14 11:17:22;;;;;;;;;;;12.10;99.90;;;;;;4945087;29;20057;-95
2020/12/14 11:20:29;;;;;;;37.70;7.05;;;;;;;;;;4939159;29;19922;-93
2020/12/14 11:23:25;;;;;;;29.65;4.88;;;;;;;;;;4944835;29;20035;-92
2020/12/14 11:25:57;;;;;;;26.52;7.72;;;;;;;;;;4922902;29;20047;-93
2020/12/14 11:28:28;;;;;;;;;;;12.40;99.90;;;;;;4949106;29;20055;-94
2020/12/14 11:31:06;;;;;;;20.80;4.80;;;;;;;;;;4937654;29;19919;-95
2020/12/14 11:33:53;;;;;;;23.40;7.03;;;12.80;99.90;;;;;;4941406;29;20050;-92
2020/12/14 11:36:23;;;;;;;28.80;7.70;;;;;;;;;;4934080;29;20056;-93
2020/12/14 11:39:35;;;;;;;17.40;3.40;;;12.80;99.90;;;;;;4959058;29;20059;-94
2020/12/14 11:42:11;;;;;;;26.27;8.40;;;;;;;;;;4949261;29;20058;-92
2020/12/14 11:45:20;;;;;;;27.35;6.60;;;;;;;;;;4953269;29;20055;-92
2020/12/14 11:47:48;;;;;;;27.67;6.30;;;;;;;;;;4913534;29;20054;-93
2020/12/14 11:50:36;;;;;;;15.68;3.70;;;;;;;;;;4951261;29;20059;-94
2020/12/14 11:53:30;;;;;;;13.32;3.65;;;;;;;;;;4943959;28;20043;-94
2020/12/14 11:56:20;;;;;;;23.48;4.63;;;;;;;;;;4927854;29;20047;-93
2020/12/14 11:59:02;;;;;;;16.27;5.20;;;;;;;;;;4953017;28;20058;-93
2020/12/14 12:01:34;;;;;;;24.80;5.28;;;;;;;;;;4925505;28;20059;-94
2020/12/14 12:04:17;;;;;;;22.17;6.25;;;;;;;;;;4959268;28;20047;-94
2020/12/14 12:06:49;;;;;;;12.98;4.47;;;;;;;;;;4959851;29;20050;-93
2020/12/14 12:09:37;;;;;;;22.13;5.10;;;;;;;;;;4937247;29;20059;-93
2020/12/14 12:12:05;;;;;;;32.72;5.20;;;;;;;;;;4973841;28;20047;-93
2020/12/14 12:14:35;;;;;;;34.95;8.18;;;;;;;;;;4942020;29;20047;-94
2020/12/14 12:17:07;;;;;;;30.25;5.88;;;;;;;;;;4920549;28;20048;-92
2020/12/14 12:19:42;;;;;;;24.83;5.35;;;;;;;;;;4943329;29;20067;-93
2020/12/14 12:22:15;;;;;;;27.35;5.95;;;;;;;;;;4947906;29;20688;-93
2020/12/14 12:24:46;;;;;;;24.52;5.50;;;;;;;;;;4963603;28;20047;-92
2020/12/14 12:27:14;;;;;;;21.25;5.00;;;;;;;;;;4942901;28;20055;-93
2020/12/14 12:29:43;;;;;;;23.83;3.95;;;;;;;;;;4950164;28;20047;-92
2020/12/14 12:32:14;;;;;;;18.60;4.45;;;;;;;;;;4934019;29;20047;-92
2020/12/14 12:34:46;;;;;;;21.90;4.78;;;;;;;;;;4963560;28;20482;-92
2020/12/14 12:37:17;;;;;;;17.85;5.55;;;;;;;;;;4941681;29;20491;-89
2020/12/14 12:39:47;;;;;;;14.35;3.70;;;;;;;;;;4960570;29;20098;-94
2020/12/14 12:42:18;;;;;;;20.50;5.35;;;;;;;;;;4935607;29;20066;-93
2020/12/14 12:44:50;;;;;;;20.10;5.07;;;;;;;;;;4934562;29;20044;-93
2020/12/14 12:47:28;;;;;;;33.08;7.97;;;;;;;;;;4961144;29;20055;-92
2020/12/14 12:50:01;;;;;;;23.92;4.25;;;;;;;;;;4948128;29;20051;-95
2020/12/14 12:52:29;;;;;;;31.33;5.78;;;;;;;;;;4947429;29;20063;-94
2020/12/14 12:55:15;;;;;;;20.45;5.50;;;;;;;;;;4929260;29;20056;-89
2020/12/14 12:58:08;;;;;;;16.48;3.47;;;;;;;;;;4963840;28;20050;-95
2020/12/14 13:00:57;;;;;;;19.95;5.05;;;;;;;;;;4926338;29;20046;-93
2020/12/14 13:03:37;;;;;;;21.47;6.00;;;;;;;;;;4915979;29;20043;-92
2020/12/14 13:06:46;;;;;;;18.85;4.85;;;;;;;;;;4927225;29;20052;-94
2020/12/14 13:09:34;;;;;;;22.08;5.30;;;;;;;;;;4911212;29;20066;-94
2020/12/14 13:12:18;;;;;;;33.45;6.38;;;;;;;;;;4939340;29;20047;-93
2020/12/14 13:15:01;;;;;;;21.17;4.93;;;;;;;;;;4927925;29;20048;-93
2020/12/14 13:17:59;;;;;;;19.63;5.30;;;;;;;;;;4914280;23;20060;-93
2020/12/14 13:24:30;;;;;;;21.52;5.07;;;;;;;;;;4947390;29;20049;-94
2020/12/14 13:27:34;;;;;;;25.95;5.38;;;;;;;;;;4911114;29;20051;-94
2020/12/14 13:30:18;;;;;;;24.95;7.50;;;;;;;;;;4934497;29;20068;-93
2020/12/14 13:33:16;;;;;;;27.30;4.53;;;;;;;;;;4927468;29;20058;-94
2020/12/14 13:35:57;;;;;;;18.85;6.25;;;;;;;;;;4950769;29;20059;-93
2020/12/14 13:38:32;;;;;;;24.23;5.40;;;;;;;;;;4964216;29;20047;-93
2020/12/14 13:41:18;;;;;;;34.65;7.15;;;;;;;;;;4964164;29;20043;-94
2020/12/14 13:43:52;;;;;;;27.45;6.22;;;;;;;;;;4945324;29;20051;-93
2020/12/14 13:46:26;;;;;;;34.00;5.65;;;;;;;;;;4906350;29;20047;-93
2020/12/14 13:49:01;;;;;;;15.18;5.25;;;;;;;;;;4932413;29;20059;-93
2020/12/14 13:51:41;;;;;;;19.20;5.43;;;;;;;;;;4950288;29;20049;-94
2020/12/14 13:54:44;;;;;;;24.92;7.15;;;;;;;;;;4940574;29;20054;-94
2020/12/14 13:57:53;;;;;;;20.08;3.40;;;;;;;;;;4953237;29;20058;-95
2020/12/14 14:00:30;;;;;;;29.65;8.30;;;;;;;;;;4935931;29;20612;-94
2020/12/14 14:03:16;;;;;;;37.90;6.90;;;;;;;;;;4947778;29;20062;-94
2020/12/14 14:06:07;;;;;;;23.98;5.10;;;;;;;;;;4948867;28;20055;-94
2020/12/14 14:08:37;;;;;;;18.95;5.82;;;;;;;;;;4947510;29;20082;-92
2020/12/14 14:11:11;;;;;;;35.45;6.93;;;;;;;;;;4961276;28;20044;-91
2020/12/14 14:17:19;;;;;;;24.23;6.35;;;;;;;;;;4967249;28;20047;-91
2020/12/14 14:20:19;;;;;;;26.15;6.22;;;;;;;;;;4961408;29;20049;-91
2020/12/14 14:23:12;;;;;;;23.75;6.28;;;;;;;;;;5012585;23;20063;-92
2020/12/14 14:26:12;;;;;;;24.27;6.25;;;;;;;;;;4939266;29;20058;-93
2020/12/14 14:28:58;;;;;;;39.63;8.07;;;;;;;;;;4964485;28;20051;-92
2020/12/14 14:31:31;;;;;;;37.20;6.63;;;;;;;;;;4954016;28;20051;-92
2020/12/14 14:34:10;;;;;;;28.33;5.80;;;;;;;;;;4955256;28;20418;-94
2020/12/14 14:44:59;;;;;;;30.65;7.55;;;;;;;;;;5122326;23;20053;-94
2020/12/14 15:38:53;;;;;;;30.67;5.47;;;;;;;;;;4827577;24;20999;-92
2020/12/14 16:16:45;;;;;;;37.22;8.93;;;;;;;;;;4911731;24;20048;-92
2020/12/14 16:22:33;;;;;;;17.23;3.92;;;;;;;;;;4764987;30;20047;-90
2020/12/14 16:28:52;;;;;;;15.68;5.07;;;;;;;;;;4835211;24;20583;-89
2020/12/14 16:31:56;;;;;;;17.88;5.10;;;;;;;;;;4743291;30;20056;-92
2020/12/14 16:35:11;;;;;;;10.80;2.03;;;;;;;;;;4737728;30;20061;-92
2020/12/14 16:38:44;;;;;;;9.25;2.30;;;;;;;;;;4731564;30;20050;-95
2020/12/14 16:45:50;;;;;;;12.45;2.55;;;;;;;;;;4953410;24;20052;-91
2020/12/14 16:48:33;;;;;;;8.95;3.55;;;;;;;;;;4758928;30;20064;-90
2020/12/14 16:51:12;;;;;;;5.72;2.00;;;;;;;;;;4734310;30;20056;-94
2020/12/14 16:53:51;;;;;;;8.48;2.88;;;;;;;;;;4750665;24;21038;-93
2020/12/14 16:56:38;;;;;;;9.15;2.85;;;;;;;;;;4767861;24;20059;-91
2020/12/14 16:59:15;;;;;;;13.48;2.03;;;;;;;;;;4774884;29;20060;-91
2020/12/14 17:02:04;;;;;;;2.28;1.52;;;;;;;;;;4762666;30;20060;-92
2020/12/14 17:07:32;;;;;;;6.57;2.80;;;;;;;;;;4747774;30;20064;-94
2020/12/14 17:10:18;;;;;;;13.63;2.45;;;;;;;;;;4751210;30;20056;-91
2020/12/14 17:13:01;;;;;;;8.82;3.13;;;;;;;;;;4761734;29;20052;-93
2020/12/14 17:15:46;;;;;;;12.98;3.58;;;;;;;;;;4779185;30;20051;-93
2020/12/14 17:18:39;;;;;;;10.77;3.90;;;;;;;;;;4755209;30;20567;-92
2020/12/14 17:21:27;;;;;;;14.88;2.78;;;;;;;;;;4771162;30;20042;-92
2020/12/14 17:24:04;;;;;;;13.00;3.17;;;;;;;;;;4763896;30;20056;-93
2020/12/14 17:30:20;;;;;;;12.63;2.33;;;;;;;;;;4739925;30;20073;-93
2020/12/14 17:33:08;;;;;;;8.15;2.35;;;;;;;;;;4745080;30;20109;-95
2020/12/14 17:35:44;;;;;;;12.20;2.03;;;;;;;;;;4690100;30;20063;-93
2020/12/14 17:39:02;;;;;;;10.13;3.30;;;;;;;;;;4745855;30;20052;-92
2020/12/14 17:41:45;;;;;;;20.15;3.88;;;;;;;;;;4741898;30;20055;-92
2020/12/14 17:44:19;;;;;;;7.13;2.78;;;;;;;;;;4721094;30;20502;-92
2020/12/14 17:46:57;;;;;;;28.20;3.88;;;;;;;;;;4749202;30;20067;-92